Time;durP1;ratioP1;P1;durP2;ratioP2;P2;SDS_P1;SDS_P2;PMS_P1;PMS_P2;Temp;Humidity;BMP_temperature;BMP_pressure;BME280_temperature;BME280_humidity;BME280_pressure;Samples;Min_cycle;Max_cycle;Signal;HPM_P1;HPM_P2
2022/08/02 00:00:22;;;;;;;5.85;4.57;;;;;;;;;;5031005;28;20315;-60
2022/08/02 00:02:48;;;;;;;7.32;4.85;;;;;;;;;;5032829;28;20022;-60
2022/08/02 00:05:14;;;;;;;8.82;5.15;;;;;;;;;;5028065;28;20038;-60
2022/08/02 00:07:40;;;;;;;6.75;4.90;;;;;;;;;;5027899;28;20120;-60
2022/08/02 00:10:07;;;;;;;8.55;4.90;;;;;;;;;;5028463;28;20097;-59
2022/08/02 00:12:32;;;;;;;10.57;4.80;;;;;;;;;;5033229;28;20077;-59
2022/08/02 00:14:58;;;;;;;5.05;4.53;;;;;;;;;;5025427;28;20036;-60
2022/08/02 00:17:23;;;;;;;7.25;5.00;;;;;;;;;;5030029;28;20071;-60
2022/08/02 00:19:49;;;;;;;5.85;4.90;;;;;;;;;;5028879;28;20378;-60
2022/08/02 00:22:15;;;;;;;6.45;5.10;;;;;;;;;;5032450;28;20570;-60
2022/08/02 00:24:40;;;;;;;7.45;4.90;;;;;;;;;;5027938;28;20113;-61
2022/08/02 00:27:07;;;;;;;7.93;5.28;;;;;;;;;;5026693;28;20033;-60
2022/08/02 00:29:33;;;;;;;6.18;4.53;;;;;;;;;;5027812;28;20026;-60
2022/08/02 00:31:58;;;;;;;9.18;5.78;;;;;;;;;;5031693;28;20025;-60
2022/08/02 00:34:24;;;;;;;8.10;5.00;;;;;;;;;;5029391;28;20049;-60
2022/08/02 00:36:49;;;;;;;7.93;5.18;;;;;;;;;;5031302;28;20045;-60
2022/08/02 00:39:15;;;;;;;5.47;4.65;;;;;;;;;;5031779;28;20027;-60
2022/08/02 00:41:45;;;;;;;10.93;5.47;;;;;;;;;;5027946;28;20025;-60
2022/08/02 00:44:11;;;;;;;6.68;5.00;;;;;;;;;;5027356;28;20375;-60
2022/08/02 00:46:36;;;;;;;6.78;5.22;;;;;;;;;;5028566;28;20036;-60
2022/08/02 00:49:02;;;;;;;9.18;5.07;;;;;;;;;;5031275;28;20132;-59
2022/08/02 00:51:27;;;;;;;6.60;5.15;;;;;;;;;;5028907;28;20522;-60
2022/08/02 00:53:52;;;;;;;6.25;4.97;;;;;;;;;;5029294;28;20052;-60
2022/08/02 00:56:18;;;;;;;5.95;4.85;;;;;;;;;;5027775;28;20052;-59
2022/08/02 00:58:43;;;;;;;6.25;5.05;;;;;;;;;;5027198;28;20037;-59
2022/08/02 01:01:08;;;;;;;8.27;4.90;;;;;;;;;;5032625;28;20376;-60
2022/08/02 01:03:34;;;;;;;5.22;4.43;;;;;;;;;;5026687;28;20021;-60
2022/08/02 01:05:59;;;;;;;5.25;4.57;;;;;;;;;;5027510;28;20037;-59
2022/08/02 01:08:25;;;;;;;5.30;4.80;;;;;;;;;;5023974;28;20021;-60
2022/08/02 01:10:50;;;;;;;6.80;5.03;;;;;;;;;;5035521;28;20036;-60
2022/08/02 01:13:16;;;;;;;9.25;4.60;;;;;;;;;;5036203;28;20058;-60
2022/08/02 01:15:47;;;;;;;6.88;5.13;;;;;;;;;;5027004;28;20423;-60
2022/08/02 01:18:29;;;;;;;8.32;5.07;;;;;;;;;;5026155;28;20036;-60
2022/08/02 01:21:21;;;;;;;7.05;5.10;;;;;;;;;;5030105;28;20032;-60
2022/08/02 01:24:05;;;;;;;9.93;4.38;;;;;;;;;;5025459;28;20488;-60
2022/08/02 01:26:36;;;;;;;6.63;4.60;;;;;;;;;;5028153;28;20087;-60
2022/08/02 01:29:27;;;;;;;5.90;4.82;;;;;;;;;;5030805;28;20034;-61
2022/08/02 01:31:55;;;;;;;8.35;5.18;;;;;;;;;;5031957;28;20022;-61
2022/08/02 01:34:25;;;;;;;6.57;4.57;;;;;;;;;;5030705;28;20040;-61
2022/08/02 01:37:06;;;;;;;;;;;;;;;;;;5036399;28;20048;-60
2022/08/02 01:39:33;;;;;;;6.72;4.47;;;;;;;;;;5027465;28;20359;-60
2022/08/02 01:42:00;;;;;;;7.15;4.43;;;;;;;;;;5026807;28;20124;-60
2022/08/02 01:44:29;;;;;;;8.05;4.25;;;;;;;;;;5026249;28;20025;-60
2022/08/02 01:46:59;;;;;;;6.93;4.82;;;;;;;;;;5033470;28;20486;-60
2022/08/02 01:49:28;;;;;;;5.35;4.38;;;;;;;;;;5027698;28;20372;-60
2022/08/02 01:54:44;;;;;;;6.38;5.07;;;;;;;;;;5027189;28;20399;-60
2022/08/02 01:57:12;;;;;;;7.32;4.95;;;;;;;;;;5024906;28;20029;-60
2022/08/02 01:59:39;;;;;;;6.97;4.65;;;;;;;;;;5029204;28;20120;-59
2022/08/02 02:02:07;;;;;;;7.47;4.90;;;;;;;;;;5025577;28;20060;-59
2022/08/02 02:04:35;;;;;;;6.45;4.55;;;;;;;;;;5029396;28;20021;-60
2022/08/02 02:07:02;;;;;;;6.95;4.70;;;;;;;;;;5021905;28;20022;-60
2022/08/02 02:09:29;;;;;;;5.60;4.38;;;;;;;;;;5028081;28;20666;-60
2022/08/02 02:11:56;;;;;;;6.07;4.60;;;;;;;;;;5026659;28;20034;-60
2022/08/02 02:14:23;;;;;;;7.03;4.68;;;;;;;;;;5027424;28;20067;-60
2022/08/02 02:16:49;;;;;;;6.65;4.93;;;;;;;;;;5031890;28;20025;-59
2022/08/02 02:19:17;;;;;;;6.45;4.55;;;;;;;;;;5023813;28;20041;-59
2022/08/02 02:21:43;;;;;;;7.15;4.40;;;;;;;;;;5024753;28;20361;-59
2022/08/02 02:24:08;;;;;;;6.10;4.53;;;;;;;;;;5027600;28;20033;-59
2022/08/02 02:26:34;;;;;;;7.00;4.18;;;;;;;;;;5025186;28;20025;-60
2022/08/02 02:29:05;;;;;;;5.63;4.43;;;;;;;;;;5025790;28;20542;-60
2022/08/02 02:31:35;;;;;;;6.28;4.32;;;;;;;;;;5026919;28;20068;-60
2022/08/02 02:34:08;;;;;;;8.05;4.55;;;;;;;;;;5035463;28;20087;-60
2022/08/02 02:36:37;;;;;;;6.40;4.53;;;;;;;;;;5027498;28;20037;-60
2022/08/02 02:39:05;;;;;;;7.78;4.75;;;;;;;;;;5025190;28;20021;-60
2022/08/02 02:41:31;;;;;;;8.25;4.43;;;;;;;;;;5028132;28;20035;-60
2022/08/02 02:44:00;;;;;;;9.40;4.30;;;;;;;;;;5031555;28;20097;-59
2022/08/02 02:46:28;;;;;;;15.15;5.00;;;;;;;;;;5024482;28;20407;-60
2022/08/02 02:48:54;;;;;;;7.45;4.53;;;;;;;;;;5027975;28;20399;-59
2022/08/02 02:51:21;;;;;;;6.95;4.28;;;;;;;;;;5026871;28;20037;-61
2022/08/02 02:53:49;;;;;;;5.45;4.20;;;;;;;;;;5026121;28;20025;-59
2022/08/02 02:56:16;;;;;;;10.20;4.50;;;;;;;;;;5022616;28;20064;-61
2022/08/02 02:58:42;;;;;;;6.03;4.55;;;;;;;;;;5024712;28;20033;-61
2022/08/02 03:01:27;;;;;;;6.22;4.13;;;;;;;;;;5027593;28;20427;-60
2022/08/02 03:03:54;;;;;;;8.13;4.10;;;;;;;;;;5024026;28;20035;-61
2022/08/02 03:06:19;;;;;;;5.28;4.55;;;;;;;;;;5023925;28;20031;-59
2022/08/02 03:08:45;;;;;;;5.78;4.40;;;;;;;;;;5029331;28;20421;-60
2022/08/02 03:11:13;;;;;;;6.53;4.40;;;;;;;;;;5026090;28;20021;-59
2022/08/02 03:13:39;;;;;;;5.88;4.18;;;;;;;;;;5024501;28;20496;-59
2022/08/02 03:16:05;;;;;;;6.63;4.25;;;;;;;;;;5029155;28;20061;-60
2022/08/02 03:18:33;;;;;;;6.85;4.40;;;;;;;;;;5025912;28;20063;-60
2022/08/02 03:21:00;;;;;;;6.88;4.30;;;;;;;;;;5026300;28;20393;-60
2022/08/02 03:23:26;;;;;;;6.03;4.30;;;;;;;;;;5028159;28;20043;-60
2022/08/02 03:25:51;;;;;;;6.82;4.05;;;;;;;;;;5027785;28;20085;-60
2022/08/02 03:28:16;;;;;;;7.65;4.10;;;;;;;;;;5028587;28;20487;-59
2022/08/02 03:30:42;;;;;;;6.63;4.20;;;;;;;;;;5029531;28;20018;-60
2022/08/02 03:33:07;;;;;;;7.68;4.15;;;;;;;;;;5030176;28;20561;-60
2022/08/02 03:35:34;;;;;;;5.45;3.88;;;;;;;;;;5031873;28;20041;-60
2022/08/02 03:38:00;;;;;;;6.53;3.90;;;;;;;;;;5030736;28;20033;-60
2022/08/02 03:40:27;;;;;;;4.95;3.60;;;;;;;;;;5029064;28;20048;-59
2022/08/02 03:42:53;;;;;;;5.15;3.60;;;;;;;;;;5030699;28;20025;-60
2022/08/02 03:45:18;;;;;;;7.72;3.50;;;;;;;;;;5029190;28;20034;-60
2022/08/02 03:47:45;;;;;;;5.53;3.30;;;;;;;;;;5028443;28;20018;-59
2022/08/02 03:50:12;;;;;;;6.32;3.60;;;;;;;;;;5029779;28;20029;-59
2022/08/02 03:52:40;;;;;;;7.53;3.60;;;;;;;;;;5030078;28;20091;-60
2022/08/02 03:55:06;;;;;;;4.70;3.30;;;;;;;;;;5028422;28;20029;-59
2022/08/02 03:57:32;;;;;;;5.40;3.47;;;;;;;;;;5027728;28;20052;-59
2022/08/02 03:59:57;;;;;;;4.60;3.10;;;;;;;;;;5033702;28;20124;-59
2022/08/02 04:02:23;;;;;;;6.07;2.88;;;;;;;;;;5032127;28;20117;-59
2022/08/02 04:04:48;;;;;;;5.90;3.13;;;;;;;;;;5029927;28;20025;-60
2022/08/02 04:07:14;;;;;;;7.22;3.42;;;;;;;;;;5027135;28;20174;-60
2022/08/02 04:09:39;;;;;;;4.60;3.03;;;;;;;;;;5029480;28;20029;-60
2022/08/02 04:12:04;;;;;;;6.43;3.42;;;;;;;;;;5031986;28;20048;-59
2022/08/02 04:14:30;;;;;;;5.35;2.92;;;;;;;;;;5028835;28;20477;-60
2022/08/02 04:17:03;;;;;;;5.60;2.95;;;;;;;;;;5026211;28;20022;-60
2022/08/02 04:19:36;;;;;;;3.67;2.90;;;;;;;;;;5026012;28;20108;-59
2022/08/02 04:22:03;;;;;;;6.28;3.72;;;;;;;;;;5026980;28;20025;-60
2022/08/02 04:24:37;;;;;;;6.57;3.33;;;;;;;;;;5029508;28;20033;-59
2022/08/02 04:27:03;;;;;;;4.65;3.28;;;;;;;;;;5026528;28;20102;-60
2022/08/02 04:29:31;;;;;;;6.95;2.97;;;;;;;;;;5027846;28;20638;-59
2022/08/02 04:31:57;;;;;;;4.00;3.00;;;;;;;;;;5027386;28;20112;-60
2022/08/02 04:34:23;;;;;;;7.72;3.30;;;;;;;;;;5031987;28;20052;-61
2022/08/02 04:36:48;;;;;;;4.28;2.97;;;;;;;;;;5030077;28;20452;-60
2022/08/02 04:39:14;;;;;;;7.07;3.17;;;;;;;;;;5029820;28;20037;-60
2022/08/02 04:41:43;;;;;;;5.00;3.08;;;;;;;;;;5031707;28;20056;-61
2022/08/02 04:44:09;;;;;;;3.72;2.85;;;;;;;;;;5027527;28;20029;-61
2022/08/02 04:46:35;;;;;;;5.25;2.78;;;;;;;;;;5026638;28;20030;-61
2022/08/02 04:49:01;;;;;;;9.40;3.10;;;;;;;;;;5027413;28;20446;-60
2022/08/02 04:51:27;;;;;;;11.93;2.95;;;;;;;;;;5026536;28;20025;-61
2022/08/02 04:53:52;;;;;;;3.88;2.90;;;;;;;;;;5025938;28;20371;-60
2022/08/02 04:56:18;;;;;;;3.50;2.75;;;;;;;;;;5024366;28;20026;-61
2022/08/02 04:58:43;;;;;;;6.60;3.20;;;;;;;;;;5026967;28;20491;-60
2022/08/02 05:01:08;;;;;;;3.30;2.58;;;;;;;;;;5026723;28;20068;-61
2022/08/02 05:03:34;;;;;;;4.82;3.17;;;;;;;;;;5026236;28;20399;-60
2022/08/02 05:05:59;;;;;;;4.30;3.10;;;;;;;;;;5024266;28;20472;-60
2022/08/02 05:08:25;;;;;;;4.78;3.47;;;;;;;;;;5026533;28;20458;-60
2022/08/02 05:10:51;;;;;;;3.97;2.72;;;;;;;;;;5026337;28;20040;-60
2022/08/02 05:13:16;;;;;;;4.90;2.95;;;;;;;;;;5026522;28;20464;-60
2022/08/02 05:15:42;;;;;;;8.73;5.32;;;;;;;;;;5025131;28;20029;-60
2022/08/02 05:18:07;;;;;;;6.55;3.33;;;;;;;;;;5025175;28;20068;-61
2022/08/02 05:20:32;;;;;;;5.38;3.30;;;;;;;;;;5026771;28;20134;-60
2022/08/02 05:22:58;;;;;;;4.35;2.80;;;;;;;;;;5026516;28;20021;-60
2022/08/02 05:25:23;;;;;;;4.25;2.75;;;;;;;;;;5025614;28;20033;-60
2022/08/02 05:27:49;;;;;;;8.82;3.90;;;;;;;;;;5024283;28;20053;-60
2022/08/02 05:30:14;;;;;;;5.93;3.00;;;;;;;;;;5026121;28;20037;-60
2022/08/02 05:32:48;;;;;;;9.57;3.13;;;;;;;;;;5028175;28;20061;-60
2022/08/02 05:35:17;;;;;;;4.63;2.90;;;;;;;;;;5028166;28;20403;-60
2022/08/02 05:37:43;;;;;;;5.53;3.20;;;;;;;;;;5027368;28;20219;-60
2022/08/02 05:40:09;;;;;;;4.30;3.58;;;;;;;;;;5028090;28;20025;-60
2022/08/02 05:42:34;;;;;;;4.85;3.10;;;;;;;;;;5020721;28;20037;-60
2022/08/02 05:45:00;;;;;;;6.00;2.97;;;;;;;;;;5026620;28;20021;-60
2022/08/02 05:47:25;;;;;;;9.57;3.90;;;;;;;;;;5023250;28;20076;-59
2022/08/02 05:49:51;;;;;;;6.70;3.70;;;;;;;;;;5026438;28;20128;-60
2022/08/02 05:52:18;;;;;;;6.18;3.90;;;;;;;;;;5025355;28;20025;-60
2022/08/02 05:54:51;;;;;;;9.68;4.80;;;;;;;;;;5026155;28;20115;-59
2022/08/02 05:57:48;;;;;;;8.93;4.40;;;;;;;;;;5023430;28;20026;-62
2022/08/02 06:00:14;;;;;;;7.22;4.00;;;;;;;;;;5026994;28;20105;-60
2022/08/02 06:02:42;;;;;;;6.15;4.25;;;;;;;;;;5024403;28;20022;-60
2022/08/02 06:05:08;;;;;;;9.68;3.83;;;;;;;;;;5023889;28;20606;-60
2022/08/02 06:07:35;;;;;;;6.90;4.25;;;;;;;;;;5025362;28;20025;-60
2022/08/02 06:10:05;;;;;;;6.50;4.18;;;;;;;;;;5027727;28;20092;-61
2022/08/02 06:12:31;;;;;;;;;;;;;;;;;;5024552;28;20060;-61
2022/08/02 06:14:58;;;;;;;7.47;3.90;;;;;;;;;;5023475;28;19919;-61
2022/08/02 06:17:24;;;;;;;8.23;3.97;;;;;;;;;;5023903;28;20507;-61
2022/08/02 06:19:54;;;;;;;6.45;4.28;;;;;;;;;;5025360;28;20029;-61
2022/08/02 06:22:20;;;;;;;5.20;4.18;;;;;;;;;;5024835;28;20025;-61
2022/08/02 06:24:49;;;;;;;5.78;3.78;;;;;;;;;;5022431;28;20052;-61
2022/08/02 06:27:15;;;;;;;7.93;3.85;;;;;;;;;;5022565;28;20025;-61
2022/08/02 06:29:42;;;;;;;5.53;3.92;;;;;;;;;;5024809;28;20537;-61
2022/08/02 06:32:08;;;;;;;4.80;3.90;;;;;;;;;;5027060;28;20108;-61
2022/08/02 06:34:39;;;;;;;4.93;3.78;;;;;;;;;;5026844;28;20523;-61
2022/08/02 06:37:17;;;;;;;6.22;3.72;;;;;;;;;;5028112;28;20075;-61
2022/08/02 06:39:49;;;;;;;6.55;3.65;;;;;;;;;;5027822;28;20029;-61
2022/08/02 06:42:19;;;;;;;5.25;3.90;;;;;;;;;;5024205;28;20464;-61
2022/08/02 06:44:45;;;;;;;6.40;4.18;;;;;;;;;;5022944;28;20055;-61
2022/08/02 06:47:11;;;;;;;7.30;3.63;;;;;;;;;;5027213;28;20109;-60
2022/08/02 06:49:37;;;;;;;5.57;4.00;;;;;;;;;;5026055;28;20475;-60
2022/08/02 06:52:03;;;;;;;5.05;3.45;;;;;;;;;;5022321;28;20033;-60
2022/08/02 06:54:28;;;;;;;16.85;4.90;;;;;;;;;;5024397;28;20035;-60
2022/08/02 06:56:54;;;;;;;5.60;3.47;;;;;;;;;;5023737;28;20036;-60
2022/08/02 06:59:19;;;;;;;4.85;3.90;;;;;;;;;;5025339;28;20487;-60
2022/08/02 07:01:44;;;;;;;6.55;3.25;;;;;;;;;;5025451;28;20091;-60
2022/08/02 07:04:10;;;;;;;4.80;3.20;;;;;;;;;;5028701;28;20044;-60
2022/08/02 07:06:35;;;;;;;3.83;3.28;;;;;;;;;;5031241;28;20075;-60
2022/08/02 07:09:00;;;;;;;5.88;3.30;;;;;;;;;;5029960;28;20041;-60
2022/08/02 07:11:26;;;;;;;5.43;3.55;;;;;;;;;;5027887;28;20021;-60
2022/08/02 07:13:51;;;;;;;3.78;3.13;;;;;;;;;;5026591;28;20467;-58
2022/08/02 07:16:17;;;;;;;6.25;3.40;;;;;;;;;;5028751;28;20025;-59
2022/08/02 07:18:42;;;;;;;5.68;3.80;;;;;;;;;;5029256;28;20035;-59
2022/08/02 07:21:07;;;;;;;4.32;3.45;;;;;;;;;;5028015;28;20025;-58
2022/08/02 07:23:33;;;;;;;4.20;3.50;;;;;;;;;;5026034;28;20398;-59
2022/08/02 07:25:59;;;;;;;5.45;3.13;;;;;;;;;;5028547;28;20025;-59
2022/08/02 07:28:24;;;;;;;6.95;3.95;;;;;;;;;;5028053;28;20025;-59
2022/08/02 07:30:49;;;;;;;10.90;6.65;;;;;;;;;;5031053;28;20029;-60
2022/08/02 07:33:15;;;;;;;8.70;4.85;;;;;;;;;;5029008;28;20030;-59
2022/08/02 07:35:40;;;;;;;6.25;4.60;;;;;;;;;;5030733;28;20052;-59
2022/08/02 07:38:06;;;;;;;6.13;4.53;;;;;;;;;;5027262;28;20402;-60
2022/08/02 07:40:32;;;;;;;7.10;3.88;;;;;;;;;;5029523;28;20034;-59
2022/08/02 07:42:58;;;;;;;8.05;3.92;;;;;;;;;;5028826;28;20025;-59
2022/08/02 07:45:24;;;;;;;6.57;4.38;;;;;;;;;;5028116;28;20022;-60
2022/08/02 07:47:50;;;;;;;8.20;4.00;;;;;;;;;;5028647;28;20022;-59
2022/08/02 07:50:17;;;;;;;5.53;4.10;;;;;;;;;;5031497;28;20501;-59
2022/08/02 07:52:44;;;;;;;5.38;3.85;;;;;;;;;;5024723;28;20391;-59
2022/08/02 07:55:10;;;;;;;5.18;3.97;;;;;;;;;;5024892;28;20026;-59
2022/08/02 07:57:38;;;;;;;6.50;4.20;;;;;;;;;;5027394;28;20029;-59
2022/08/02 08:00:05;;;;;;;5.50;4.43;;;;;;;;;;5027410;28;20076;-60
2022/08/02 08:02:30;;;;;;;8.00;4.95;;;;;;;;;;5025828;28;20471;-60
2022/08/02 08:04:56;;;;;;;8.05;4.57;;;;;;;;;;5024656;28;20029;-60
2022/08/02 08:07:22;;;;;;;6.95;4.18;;;;;;;;;;5025636;28;20045;-62
2022/08/02 08:09:49;;;;;;;6.10;4.22;;;;;;;;;;5019957;28;20097;-61
2022/08/02 08:12:15;;;;;;;8.23;3.70;;;;;;;;;;5026166;28;20032;-60
2022/08/02 08:14:41;;;;;;;6.65;4.40;;;;;;;;;;5024360;28;20065;-60
2022/08/02 08:17:07;;;;;;;6.20;4.68;;;;;;;;;;5022897;28;20061;-59
2022/08/02 08:19:33;;;;;;;6.43;4.05;;;;;;;;;;5024005;28;20030;-62
2022/08/02 08:22:02;;;;;;;6.82;4.10;;;;;;;;;;5022965;28;20483;-60
2022/08/02 08:24:28;;;;;;;6.60;4.57;;;;;;;;;;5025197;28;20499;-60
2022/08/02 08:26:54;;;;;;;6.13;4.32;;;;;;;;;;5026311;28;20064;-59
2022/08/02 08:29:20;;;;;;;6.15;4.20;;;;;;;;;;5028930;28;20029;-59
2022/08/02 08:31:46;;;;;;;6.97;5.18;;;;;;;;;;5027968;28;20523;-58
2022/08/02 08:34:11;;;;;;;9.52;4.72;;;;;;;;;;5026340;28;20088;-59
2022/08/02 08:36:37;;;;;;;6.20;4.80;;;;;;;;;;5028225;28;20098;-59
2022/08/02 08:39:03;;;;;;;9.70;5.30;;;;;;;;;;5029351;28;20355;-58
2022/08/02 08:41:28;;;;;;;6.22;4.72;;;;;;;;;;5027109;28;20065;-59
2022/08/02 08:43:54;;;;;;;6.78;4.35;;;;;;;;;;5026986;28;20045;-59
2022/08/02 08:46:26;;;;;;;11.90;5.22;;;;;;;;;;5024052;28;20036;-59
2022/08/02 08:48:57;;;;;;;7.65;5.38;;;;;;;;;;5026249;28;20022;-59
2022/08/02 08:51:26;;;;;;;7.97;5.13;;;;;;;;;;4985734;28;1118302;-60
2022/08/02 08:53:53;;;;;;;;;;;;;;;;;;5025572;28;20021;-59
2022/08/02 08:56:19;;;;;;;9.20;4.72;;;;;;;;;;5026199;28;19972;-60
2022/08/02 08:58:46;;;;;;;5.82;4.65;;;;;;;;;;5023912;28;20045;-60
2022/08/02 09:01:13;;;;;;;8.82;5.78;;;;;;;;;;5027545;28;20033;-60
2022/08/02 09:03:39;;;;;;;5.50;4.38;;;;;;;;;;5025298;28;20103;-61
2022/08/02 09:06:04;;;;;;;6.53;5.07;;;;;;;;;;5024111;28;20494;-58
2022/08/02 09:08:30;;;;;;;5.57;4.28;;;;;;;;;;5027980;28;20502;-64
2022/08/02 09:10:56;;;;;;;6.70;4.63;;;;;;;;;;5026731;28;20514;-59
2022/08/02 09:13:30;;;;;;;5.78;4.10;;;;;;;;;;5027282;28;20029;-59
2022/08/02 09:16:03;;;;;;;4.78;4.13;;;;;;;;;;5024995;28;20041;-59
2022/08/02 09:18:30;;;;;;;6.75;4.05;;;;;;;;;;5026820;28;20386;-59
2022/08/02 09:21:07;;;;;;;8.00;4.50;;;;;;;;;;5026584;28;20029;-58
2022/08/02 09:23:38;;;;;;;6.65;4.45;;;;;;;;;;5020922;28;20512;-59
2022/08/02 09:26:09;;;;;;;6.93;4.63;;;;;;;;;;5023543;28;20041;-58
2022/08/02 09:28:37;;;;;;;4.82;4.03;;;;;;;;;;5029048;28;20024;-59
2022/08/02 09:31:14;;;;;;;7.93;3.72;;;;;;;;;;5030011;28;20060;-58
2022/08/02 09:33:41;;;;;;;6.50;4.22;;;;;;;;;;5028608;28;20041;-59
2022/08/02 09:36:12;;;;;;;6.65;4.20;;;;;;;;;;5027652;28;20487;-59
2022/08/02 09:38:39;;;;;;;8.15;4.22;;;;;;;;;;5028065;28;20075;-58
2022/08/02 09:41:18;;;;;;;6.43;4.50;;;;;;;;;;5025736;28;20036;-58
2022/08/02 09:43:43;;;;;;;;;;;;;;;;;;5026691;28;20392;-58
2022/08/02 09:46:17;;;;;;;5.38;4.43;;;;;;;;;;5027195;28;19909;-59
2022/08/02 09:48:55;;;;;;;5.63;4.00;;;;;;;;;;5026903;28;20025;-58
2022/08/02 09:51:25;;;;;;;5.65;4.32;;;;;;;;;;5023553;28;20041;-60
2022/08/02 09:53:53;;;;;;;7.10;4.10;;;;;;;;;;5026812;28;20025;-60
2022/08/02 09:56:19;;;;;;;8.25;4.22;;;;;;;;;;5031803;28;20025;-60
2022/08/02 09:58:45;;;;;;;6.30;3.67;;;;;;;;;;5024805;28;20028;-59
2022/08/02 10:01:11;;;;;;;6.57;3.90;;;;;;;;;;5023867;28;20026;-59
2022/08/02 10:03:36;;;;;;;5.15;3.75;;;;;;;;;;5026285;28;20036;-59
2022/08/02 10:06:03;;;;;;;5.35;3.60;;;;;;;;;;5026544;28;20021;-59
2022/08/02 10:08:30;;;;;;;4.95;3.30;;;;;;;;;;5032441;28;20025;-60
2022/08/02 10:11:02;;;;;;;6.38;3.53;;;;;;;;;;5023675;28;20022;-59
2022/08/02 10:13:33;;;;;;;6.90;3.13;;;;;;;;;;5025753;28;20025;-60
2022/08/02 10:15:59;;;;;;;4.57;3.40;;;;;;;;;;5027118;28;20052;-60
2022/08/02 10:18:24;;;;;;;5.25;3.50;;;;;;;;;;5024199;28;20035;-60
2022/08/02 10:20:54;;;;;;;4.32;3.30;;;;;;;;;;5025815;28;20026;-58
2022/08/02 10:23:21;;;;;;;3.95;2.97;;;;;;;;;;5026367;28;20032;-59
2022/08/02 10:25:49;;;;;;;5.95;3.60;;;;;;;;;;5028795;28;20124;-61
2022/08/02 10:28:15;;;;;;;3.73;3.03;;;;;;;;;;5026135;28;20037;-63
2022/08/02 10:30:44;;;;;;;4.63;3.28;;;;;;;;;;5025446;28;20491;-59
2022/08/02 10:33:11;;;;;;;5.22;3.20;;;;;;;;;;5025435;28;20059;-59
2022/08/02 10:35:38;;;;;;;6.63;3.50;;;;;;;;;;5027818;28;20108;-56
2022/08/02 10:38:09;;;;;;;3.40;3.10;;;;;;;;;;5025352;28;20037;-56
2022/08/02 10:40:52;;;;;;;5.25;4.10;;;;;;;;;;5025430;28;20032;-56
2022/08/02 10:43:35;;;;;;;4.65;3.45;;;;;;;;;;5023539;28;20041;-57
2022/08/02 10:46:19;;;;;;;3.90;3.42;;;;;;;;;;5024786;28;20036;-58
2022/08/02 10:49:06;;;;;;;5.88;3.47;;;;;;;;;;5025410;28;20056;-57
2022/08/02 10:51:50;;;;;;;8.57;3.75;;;;;;;;;;5024403;28;20108;-57
2022/08/02 10:54:22;;;;;;;5.65;3.47;;;;;;;;;;5028406;28;20038;-57
2022/08/02 10:56:50;;;;;;;5.70;3.47;;;;;;;;;;5025498;28;20071;-57
2022/08/02 10:59:42;;;;;;;4.00;3.40;;;;;;;;;;5025184;28;20091;-56
2022/08/02 11:02:07;;;;;;;5.60;3.20;;;;;;;;;;5022041;28;20507;-57
2022/08/02 11:04:42;;;;;;;3.60;2.50;;;;;;;;;;5024889;28;20041;-56
2022/08/02 11:07:30;;;;;;;5.97;3.25;;;;;;;;;;5028755;28;20615;-56
2022/08/02 11:09:58;;;;;;;3.33;2.85;;;;;;;;;;5028022;28;20071;-56
2022/08/02 11:12:23;;;;;;;3.72;2.88;;;;;;;;;;5023120;28;20045;-56
2022/08/02 11:15:02;;;;;;;3.72;3.17;;;;;;;;;;5026200;28;20064;-56
2022/08/02 11:17:52;;;;;;;3.63;2.90;;;;;;;;;;5024352;28;20029;-57
2022/08/02 11:20:19;;;;;;;4.47;2.90;;;;;;;;;;5026198;28;20434;-56
2022/08/02 11:22:46;;;;;;;4.25;3.17;;;;;;;;;;5025674;28;20508;-55
2022/08/02 11:25:20;;;;;;;6.55;3.03;;;;;;;;;;5024751;28;20402;-56
2022/08/02 11:27:46;;;;;;;3.90;3.05;;;;;;;;;;5026789;28;20030;-55
2022/08/02 11:30:12;;;;;;;3.47;3.03;;;;;;;;;;5026144;28;20033;-56
2022/08/02 11:32:38;;;;;;;5.68;3.17;;;;;;;;;;5026052;28;20029;-56
2022/08/02 11:35:04;;;;;;;5.15;3.10;;;;;;;;;;5026402;28;20099;-60
2022/08/02 11:37:31;;;;;;;3.70;2.85;;;;;;;;;;5024925;28;20187;-60
2022/08/02 11:39:56;;;;;;;3.63;3.00;;;;;;;;;;5026289;28;20022;-60
2022/08/02 11:42:31;;;;;;;4.20;3.17;;;;;;;;;;5023795;28;20102;-61
2022/08/02 11:44:57;;;;;;;3.40;3.10;;;;;;;;;;5025271;28;20679;-59
2022/08/02 11:47:22;;;;;;;4.20;2.97;;;;;;;;;;5026492;28;20026;-59
2022/08/02 11:49:48;;;;;;;4.60;3.25;;;;;;;;;;5028684;28;20387;-59
2022/08/02 11:52:13;;;;;;;6.85;2.92;;;;;;;;;;5027524;28;20017;-61
2022/08/02 11:54:41;;;;;;;3.35;3.00;;;;;;;;;;5028750;28;20082;-60
2022/08/02 11:57:21;;;;;;;2.80;2.60;;;;;;;;;;5025397;28;20088;-60
2022/08/02 11:59:51;;;;;;;3.75;2.80;;;;;;;;;;5027998;28;20414;-60
2022/08/02 12:02:21;;;;;;;4.30;2.70;;;;;;;;;;5027075;28;20025;-60
2022/08/02 12:04:57;;;;;;;3.90;3.03;;;;;;;;;;5028297;28;20025;-60
2022/08/02 12:07:33;;;;;;;3.08;2.60;;;;;;;;;;5028697;28;20041;-60
2022/08/02 12:10:00;;;;;;;3.00;2.70;;;;;;;;;;5029126;28;20097;-60
2022/08/02 12:12:26;;;;;;;3.58;3.10;;;;;;;;;;5027872;28;20025;-60
2022/08/02 12:14:52;;;;;;;5.30;3.30;;;;;;;;;;5028184;28;20053;-60
2022/08/02 12:20:12;;;;;;;3.38;2.60;;;;;;;;;;5025663;28;20406;-60
2022/08/02 12:22:39;;;;;;;3.30;3.00;;;;;;;;;;5024759;28;20108;-60
2022/08/02 12:25:18;;;;;;;2.88;2.60;;;;;;;;;;5031320;28;20030;-60
2022/08/02 12:27:44;;;;;;;2.85;2.35;;;;;;;;;;5030718;28;20032;-60
2022/08/02 12:30:16;;;;;;;2.50;2.10;;;;;;;;;;5028903;28;20029;-60
2022/08/02 12:32:42;;;;;;;2.80;2.40;;;;;;;;;;5032955;28;20030;-60
2022/08/02 12:35:13;;;;;;;3.33;2.40;;;;;;;;;;5030179;28;20029;-60
2022/08/02 12:37:44;;;;;;;3.55;2.50;;;;;;;;;;5029095;28;20067;-60
2022/08/02 12:40:29;;;;;;;5.13;2.50;;;;;;;;;;5027007;28;20030;-60
2022/08/02 12:42:57;;;;;;;3.25;2.08;;;;;;;;;;5022947;28;20061;-61
2022/08/02 12:45:25;;;;;;;3.03;2.60;;;;;;;;;;5028137;28;20045;-60
2022/08/02 12:47:53;;;;;;;2.50;2.30;;;;;;;;;;5032139;28;20491;-60
2022/08/02 12:50:24;;;;;;;5.10;2.47;;;;;;;;;;5028723;28;20444;-61
2022/08/02 12:52:49;;;;;;;5.07;2.50;;;;;;;;;;5027571;28;20029;-60
2022/08/02 12:55:15;;;;;;;2.92;2.42;;;;;;;;;;5028519;28;20109;-60
2022/08/02 12:58:10;;;;;;;2.47;1.98;;;;;;;;;;5026333;28;20049;-60
2022/08/02 13:00:37;;;;;;;2.88;2.22;;;;;;;;;;5017802;28;20399;-60
2022/08/02 13:03:04;;;;;;;3.45;2.00;;;;;;;;;;5030444;28;20038;-61
2022/08/02 13:05:30;;;;;;;3.08;2.22;;;;;;;;;;5028763;28;20037;-60
2022/08/02 13:07:57;;;;;;;3.60;2.20;;;;;;;;;;5023752;28;20029;-60
2022/08/02 13:10:23;;;;;;;3.88;2.47;;;;;;;;;;5026904;28;20084;-60
2022/08/02 13:12:49;;;;;;;2.70;2.47;;;;;;;;;;5023954;28;20022;-60
2022/08/02 13:15:15;;;;;;;6.10;2.20;;;;;;;;;;5027529;28;20032;-60
2022/08/02 13:17:41;;;;;;;4.00;2.50;;;;;;;;;;5029181;28;20052;-60
2022/08/02 13:20:07;;;;;;;2.65;2.45;;;;;;;;;;5028759;28;20029;-60
2022/08/02 13:22:33;;;;;;;2.95;2.45;;;;;;;;;;5026738;28;20388;-60
2022/08/02 13:24:59;;;;;;;4.53;2.35;;;;;;;;;;5029360;28;20108;-60
2022/08/02 13:27:25;;;;;;;4.95;2.20;;;;;;;;;;5029518;28;20104;-60
2022/08/02 13:29:52;;;;;;;2.45;1.80;;;;;;;;;;5026070;28;20030;-62
2022/08/02 13:32:18;;;;;;;3.83;2.00;;;;;;;;;;5027215;28;20108;-63
2022/08/02 13:34:43;;;;;;;3.30;2.25;;;;;;;;;;5034473;28;20100;-60
2022/08/02 13:37:09;;;;;;;3.42;2.10;;;;;;;;;;5027683;28;20091;-60
2022/08/02 13:39:34;;;;;;;3.55;2.10;;;;;;;;;;5026421;28;20079;-60
2022/08/02 13:41:59;;;;;;;2.72;1.90;;;;;;;;;;5026969;28;20033;-58
2022/08/02 13:44:25;;;;;;;3.20;2.22;;;;;;;;;;5026750;28;20026;-58
2022/08/02 13:46:50;;;;;;;2.63;1.90;;;;;;;;;;5028302;28;20092;-57
2022/08/02 13:49:16;;;;;;;3.90;2.17;;;;;;;;;;5026691;28;20058;-59
2022/08/02 13:51:41;;;;;;;3.65;2.28;;;;;;;;;;5027970;28;20096;-57
2022/08/02 13:54:06;;;;;;;3.30;2.08;;;;;;;;;;5027813;28;20068;-60
2022/08/02 13:56:32;;;;;;;3.50;2.17;;;;;;;;;;5027130;28;20014;-61
2022/08/02 13:59:00;;;;;;;2.05;1.90;;;;;;;;;;5024129;28;20026;-60
2022/08/02 14:01:26;;;;;;;2.67;1.90;;;;;;;;;;5025459;28;20445;-59
2022/08/02 14:03:53;;;;;;;2.53;1.85;;;;;;;;;;5027377;28;20025;-59
2022/08/02 14:06:20;;;;;;;6.30;2.45;;;;;;;;;;5027011;28;20029;-63
2022/08/02 14:08:45;;;;;;;2.35;2.08;;;;;;;;;;5023598;28;20034;-60
2022/08/02 14:11:10;;;;;;;2.40;1.88;;;;;;;;;;5025420;28;20483;-60
2022/08/02 14:13:36;;;;;;;1.95;1.80;;;;;;;;;;5026846;28;20093;-60
2022/08/02 14:16:01;;;;;;;3.97;2.08;;;;;;;;;;5028494;28;20100;-60
2022/08/02 14:18:26;;;;;;;2.28;2.00;;;;;;;;;;5023220;28;20040;-60
2022/08/02 14:20:52;;;;;;;2.67;1.90;;;;;;;;;;5024972;28;20364;-60
2022/08/02 14:23:17;;;;;;;2.53;2.08;;;;;;;;;;5031593;28;20570;-61
2022/08/02 14:25:43;;;;;;;2.25;2.05;;;;;;;;;;5028002;28;20483;-62
2022/08/02 14:28:08;;;;;;;4.75;2.00;;;;;;;;;;5025940;28;20025;-63
2022/08/02 14:30:34;;;;;;;2.40;2.00;;;;;;;;;;5033505;28;20091;-62
2022/08/02 14:32:59;;;;;;;2.25;2.00;;;;;;;;;;5022867;28;20056;-61
2022/08/02 14:35:25;;;;;;;2.60;2.22;;;;;;;;;;5028456;28;20037;-63
2022/08/02 14:37:51;;;;;;;3.33;2.53;;;;;;;;;;5026793;28;20037;-60
2022/08/02 14:40:16;;;;;;;2.92;2.00;;;;;;;;;;5024913;28;20029;-60
2022/08/02 14:42:41;;;;;;;2.83;1.83;;;;;;;;;;5024106;28;20025;-61
2022/08/02 14:45:08;;;;;;;3.05;2.10;;;;;;;;;;5024279;28;20056;-60
2022/08/02 14:47:33;;;;;;;3.58;2.25;;;;;;;;;;5025109;28;20067;-60
2022/08/02 14:49:59;;;;;;;2.40;2.20;;;;;;;;;;5023651;28;20025;-61
2022/08/02 14:52:24;;;;;;;3.42;2.30;;;;;;;;;;5025149;28;20026;-61